sensor_id;sensor_type;location;lat;lon;timestamp;temperature;humidity
23579;DHT22;11967;50.852;4.400;2023-11-18T00:00:27;11.30;99.90
23579;DHT22;11967;50.852;4.400;2023-11-18T00:02:53;11.40;99.90
23579;DHT22;11967;50.852;4.400;2023-11-18T00:05:19;11.30;99.90
23579;DHT22;11967;50.852;4.400;2023-11-18T00:07:44;11.30;99.90
23579;DHT22;11967;50.852;4.400;2023-11-18T00:10:10;11.30;99.90
23579;DHT22;11967;50.852;4.400;2023-11-18T00:12:38;11.30;99.90
23579;DHT22;11967;50.852;4.400;2023-11-18T00:15:07;11.30;99.90
23579;DHT22;11967;50.852;4.400;2023-11-18T00:17:37;11.20;99.90
23579;DHT22;11967;50.852;4.400;2023-11-18T00:20:03;11.20;99.90
23579;DHT22;11967;50.852;4.400;2023-11-18T00:22:37;11.30;99.90
23579;DHT22;11967;50.852;4.400;2023-11-18T00:25:03;11.20;99.90
23579;DHT22;11967;50.852;4.400;2023-11-18T00:27:35;11.40;99.90
23579;DHT22;11967;50.852;4.400;2023-11-18T00:30:04;11.30;99.90
23579;DHT22;11967;50.852;4.400;2023-11-18T00:32:37;11.30;99.90
23579;DHT22;11967;50.852;4.400;2023-11-18T00:35:02;11.40;99.90
23579;DHT22;11967;50.852;4.400;2023-11-18T00:37:30;11.40;99.90
23579;DHT22;11967;50.852;4.400;2023-11-18T00:39:56;11.40;99.90
23579;DHT22;11967;50.852;4.400;2023-11-18T00:42:22;11.30;99.90
23579;DHT22;11967;50.852;4.400;2023-11-18T00:44:48;11.20;99.90
23579;DHT22;11967;50.852;4.400;2023-11-18T00:47:13;11.30;99.90
23579;DHT22;11967;50.852;4.400;2023-11-18T00:49:39;11.20;99.90
23579;DHT22;11967;50.852;4.400;2023-11-18T00:52:05;11.30;99.90
23579;DHT22;11967;50.852;4.400;2023-11-18T00:54:31;11.30;99.90
23579;DHT22;11967;50.852;4.400;2023-11-18T00:56:57;11.30;99.90
23579;DHT22;11967;50.852;4.400;2023-11-18T00:59:22;11.30;99.90
23579;DHT22;11967;50.852;4.400;2023-11-18T01:01:48;11.20;99.90
23579;DHT22;11967;50.852;4.400;2023-11-18T01:04:14;11.20;99.90
23579;DHT22;11967;50.852;4.400;2023-11-18T01:06:42;11.20;99.90
23579;DHT22;11967;50.852;4.400;2023-11-18T01:09:08;11.20;99.90
23579;DHT22;11967;50.852;4.400;2023-11-18T01:11:35;11.20;99.90
23579;DHT22;11967;50.852;4.400;2023-11-18T01:14:01;11.20;99.90
23579;DHT22;11967;50.852;4.400;2023-11-18T01:16:27;11.20;99.90
23579;DHT22;11967;50.852;4.400;2023-11-18T01:18:55;11.20;99.90
23579;DHT22;11967;50.852;4.400;2023-11-18T01:21:20;11.30;99.90
23579;DHT22;11967;50.852;4.400;2023-11-18T01:23:47;11.30;99.90
23579;DHT22;11967;50.852;4.400;2023-11-18T01:26:14;11.30;99.90
23579;DHT22;11967;50.852;4.400;2023-11-18T01:28:40;11.20;99.90
23579;DHT22;11967;50.852;4.400;2023-11-18T01:31:11;11.30;99.90
23579;DHT22;11967;50.852;4.400;2023-11-18T01:33:40;11.40;99.90
23579;DHT22;11967;50.852;4.400;2023-11-18T01:36:07;11.40;99.90
23579;DHT22;11967;50.852;4.400;2023-11-18T01:38:36;11.30;99.90
23579;DHT22;11967;50.852;4.400;2023-11-18T01:41:05;11.30;99.90
23579;DHT22;11967;50.852;4.400;2023-11-18T01:43:31;11.30;99.90
23579;DHT22;11967;50.852;4.400;2023-11-18T01:46:08;11.30;99.90
23579;DHT22;11967;50.852;4.400;2023-11-18T01:48:38;11.20;99.90
23579;DHT22;11967;50.852;4.400;2023-11-18T01:51:06;11.20;99.90
23579;DHT22;11967;50.852;4.400;2023-11-18T01:53:34;11.20;99.90
23579;DHT22;11967;50.852;4.400;2023-11-18T01:56:03;11.20;99.90
23579;DHT22;11967;50.852;4.400;2023-11-18T01:58:31;11.10;99.90
23579;DHT22;11967;50.852;4.400;2023-11-18T02:00:57;11.10;99.90
23579;DHT22;11967;50.852;4.400;2023-11-18T02:03:23;11.10;99.90
23579;DHT22;11967;50.852;4.400;2023-11-18T02:05:51;11.10;99.90
23579;DHT22;11967;50.852;4.400;2023-11-18T02:08:17;11.00;99.90
23579;DHT22;11967;50.852;4.400;2023-11-18T02:10:48;11.10;99.90
23579;DHT22;11967;50.852;4.400;2023-11-18T02:13:23;11.10;99.90
23579;DHT22;11967;50.852;4.400;2023-11-18T02:15:54;11.10;99.90
23579;DHT22;11967;50.852;4.400;2023-11-18T02:18:28;11.10;99.90
23579;DHT22;11967;50.852;4.400;2023-11-18T02:20:56;11.10;99.90
23579;DHT22;11967;50.852;4.400;2023-11-18T02:23:27;11.10;99.90
23579;DHT22;11967;50.852;4.400;2023-11-18T02:25:53;11.10;99.90
23579;DHT22;11967;50.852;4.400;2023-11-18T02:28:20;11.10;99.90
23579;DHT22;11967;50.852;4.400;2023-11-18T02:30:47;11.20;99.90
23579;DHT22;11967;50.852;4.400;2023-11-18T02:33:27;11.20;99.90
23579;DHT22;11967;50.852;4.400;2023-11-18T02:36:23;11.20;99.90
23579;DHT22;11967;50.852;4.400;2023-11-18T02:38:53;11.20;99.90
23579;DHT22;11967;50.852;4.400;2023-11-18T02:41:20;11.20;99.90
23579;DHT22;11967;50.852;4.400;2023-11-18T02:43:47;11.20;99.90
23579;DHT22;11967;50.852;4.400;2023-11-18T02:46:15;11.10;99.90
23579;DHT22;11967;50.852;4.400;2023-11-18T02:48:41;11.20;99.90
23579;DHT22;11967;50.852;4.400;2023-11-18T02:51:07;11.10;99.90
23579;DHT22;11967;50.852;4.400;2023-11-18T02:53:34;11.20;99.90
23579;DHT22;11967;50.852;4.400;2023-11-18T02:56:00;11.10;99.90
23579;DHT22;11967;50.852;4.400;2023-11-18T02:58:54;11.10;99.90
23579;DHT22;11967;50.852;4.400;2023-11-18T03:01:26;11.10;99.90
23579;DHT22;11967;50.852;4.400;2023-11-18T03:03:52;11.20;99.90
23579;DHT22;11967;50.852;4.400;2023-11-18T03:06:18;11.10;99.90
23579;DHT22;11967;50.852;4.400;2023-11-18T03:08:44;11.10;99.90
23579;DHT22;11967;50.852;4.400;2023-11-18T03:11:09;11.10;99.90
23579;DHT22;11967;50.852;4.400;2023-11-18T03:13:35;11.10;99.90
23579;DHT22;11967;50.852;4.400;2023-11-18T03:16:07;11.10;99.90
23579;DHT22;11967;50.852;4.400;2023-11-18T03:18:37;11.10;99.90
23579;DHT22;11967;50.852;4.400;2023-11-18T03:21:04;11.10;99.90
23579;DHT22;11967;50.852;4.400;2023-11-18T03:23:32;11.10;99.90
23579;DHT22;11967;50.852;4.400;2023-11-18T03:25:58;11.10;99.90
23579;DHT22;11967;50.852;4.400;2023-11-18T03:28:24;11.10;99.90
23579;DHT22;11967;50.852;4.400;2023-11-18T03:30:51;11.10;99.90
23579;DHT22;11967;50.852;4.400;2023-11-18T03:33:17;11.20;99.90
23579;DHT22;11967;50.852;4.400;2023-11-18T03:35:44;11.30;99.90
23579;DHT22;11967;50.852;4.400;2023-11-18T03:38:13;11.40;99.90
23579;DHT22;11967;50.852;4.400;2023-11-18T03:40:41;11.30;99.90
23579;DHT22;11967;50.852;4.400;2023-11-18T03:43:07;11.30;99.90
23579;DHT22;11967;50.852;4.400;2023-11-18T03:45:33;11.40;99.90
23579;DHT22;11967;50.852;4.400;2023-11-18T03:47:58;11.30;99.90
23579;DHT22;11967;50.852;4.400;2023-11-18T03:50:26;11.30;99.90
23579;DHT22;11967;50.852;4.400;2023-11-18T03:52:52;11.20;99.90
23579;DHT22;11967;50.852;4.400;2023-11-18T03:55:17;11.20;99.90
23579;DHT22;11967;50.852;4.400;2023-11-18T03:57:43;11.20;99.90
23579;DHT22;11967;50.852;4.400;2023-11-18T04:00:11;11.30;99.90
23579;DHT22;11967;50.852;4.400;2023-11-18T04:02:40;11.30;99.90
23579;DHT22;11967;50.852;4.400;2023-11-18T04:05:06;11.30;99.90
23579;DHT22;11967;50.852;4.400;2023-11-18T04:07:33;11.30;99.90
23579;DHT22;11967;50.852;4.400;2023-11-18T04:09:59;11.30;99.90
23579;DHT22;11967;50.852;4.400;2023-11-18T04:12:25;11.30;99.90
23579;DHT22;11967;50.852;4.400;2023-11-18T04:14:52;11.30;99.90
23579;DHT22;11967;50.852;4.400;2023-11-18T04:17:18;11.20;99.90
23579;DHT22;11967;50.852;4.400;2023-11-18T04:19:44;11.20;99.90
23579;DHT22;11967;50.852;4.400;2023-11-18T04:22:10;11.30;99.90
23579;DHT22;11967;50.852;4.400;2023-11-18T04:24:36;11.40;99.90
23579;DHT22;11967;50.852;4.400;2023-11-18T04:27:02;11.30;99.90
23579;DHT22;11967;50.852;4.400;2023-11-18T04:29:28;11.30;99.90
23579;DHT22;11967;50.852;4.400;2023-11-18T04:31:53;11.20;99.90
23579;DHT22;11967;50.852;4.400;2023-11-18T04:34:20;11.30;99.90
23579;DHT22;11967;50.852;4.400;2023-11-18T04:36:45;11.20;99.90
23579;DHT22;11967;50.852;4.400;2023-11-18T04:39:11;11.30;99.90
23579;DHT22;11967;50.852;4.400;2023-11-18T04:41:37;11.30;99.90
23579;DHT22;11967;50.852;4.400;2023-11-18T04:44:03;11.40;99.90
23579;DHT22;11967;50.852;4.400;2023-11-18T04:46:29;11.40;99.90
23579;DHT22;11967;50.852;4.400;2023-11-18T04:48:55;11.40;99.90
23579;DHT22;11967;50.852;4.400;2023-11-18T04:51:21;11.40;99.90
23579;DHT22;11967;50.852;4.400;2023-11-18T04:53:50;11.40;99.90
23579;DHT22;11967;50.852;4.400;2023-11-18T04:56:16;11.30;99.90
23579;DHT22;11967;50.852;4.400;2023-11-18T04:58:43;11.40;99.90
23579;DHT22;11967;50.852;4.400;2023-11-18T05:01:13;11.40;99.90
23579;DHT22;11967;50.852;4.400;2023-11-18T05:03:39;11.30;99.90
23579;DHT22;11967;50.852;4.400;2023-11-18T05:06:05;11.40;99.90
23579;DHT22;11967;50.852;4.400;2023-11-18T05:08:31;11.30;99.90
23579;DHT22;11967;50.852;4.400;2023-11-18T05:10:58;11.30;99.90
23579;DHT22;11967;50.852;4.400;2023-11-18T05:13:25;11.30;99.90
23579;DHT22;11967;50.852;4.400;2023-11-18T05:15:52;11.30;99.90
23579;DHT22;11967;50.852;4.400;2023-11-18T05:18:19;11.30;99.90
23579;DHT22;11967;50.852;4.400;2023-11-18T05:20:46;11.40;99.90
23579;DHT22;11967;50.852;4.400;2023-11-18T05:23:13;11.40;99.90
23579;DHT22;11967;50.852;4.400;2023-11-18T05:25:42;11.40;99.90
23579;DHT22;11967;50.852;4.400;2023-11-18T05:28:11;11.30;99.90
23579;DHT22;11967;50.852;4.400;2023-11-18T05:30:38;11.40;99.90
23579;DHT22;11967;50.852;4.400;2023-11-18T05:33:06;11.30;99.90
23579;DHT22;11967;50.852;4.400;2023-11-18T05:35:33;11.30;99.90
23579;DHT22;11967;50.852;4.400;2023-11-18T05:37:59;11.30;99.90
23579;DHT22;11967;50.852;4.400;2023-11-18T05:40:26;11.30;99.90
23579;DHT22;11967;50.852;4.400;2023-11-18T05:42:54;11.20;99.90
23579;DHT22;11967;50.852;4.400;2023-11-18T05:45:20;11.30;99.90
23579;DHT22;11967;50.852;4.400;2023-11-18T05:48:02;11.30;99.90
23579;DHT22;11967;50.852;4.400;2023-11-18T05:50:28;11.20;99.90
23579;DHT22;11967;50.852;4.400;2023-11-18T05:52:54;11.20;99.90
23579;DHT22;11967;50.852;4.400;2023-11-18T05:55:20;11.30;99.90
23579;DHT22;11967;50.852;4.400;2023-11-18T05:57:46;11.30;99.90
23579;DHT22;11967;50.852;4.400;2023-11-18T06:00:13;11.30;99.90
23579;DHT22;11967;50.852;4.400;2023-11-18T06:02:44;11.40;99.90
23579;DHT22;11967;50.852;4.400;2023-11-18T06:05:10;11.40;99.90
23579;DHT22;11967;50.852;4.400;2023-11-18T06:07:38;11.30;99.90
23579;DHT22;11967;50.852;4.400;2023-11-18T06:10:06;11.40;99.90
23579;DHT22;11967;50.852;4.400;2023-11-18T06:12:32;11.50;99.90
23579;DHT22;11967;50.852;4.400;2023-11-18T06:14:58;11.40;99.90
23579;DHT22;11967;50.852;4.400;2023-11-18T06:17:24;11.40;99.90
23579;DHT22;11967;50.852;4.400;2023-11-18T06:19:50;11.40;99.90
23579;DHT22;11967;50.852;4.400;2023-11-18T06:22:15;11.40;99.90
23579;DHT22;11967;50.852;4.400;2023-11-18T06:24:41;11.40;99.90
23579;DHT22;11967;50.852;4.400;2023-11-18T06:27:08;11.40;99.90
23579;DHT22;11967;50.852;4.400;2023-11-18T06:29:34;11.40;99.90
23579;DHT22;11967;50.852;4.400;2023-11-18T06:32:00;11.40;99.90
23579;DHT22;11967;50.852;4.400;2023-11-18T06:34:26;11.40;99.90
23579;DHT22;11967;50.852;4.400;2023-11-18T06:36:53;11.30;99.90
23579;DHT22;11967;50.852;4.400;2023-11-18T06:39:18;11.30;99.90
23579;DHT22;11967;50.852;4.400;2023-11-18T06:41:47;11.50;99.90
23579;DHT22;11967;50.852;4.400;2023-11-18T06:44:16;11.40;99.90
23579;DHT22;11967;50.852;4.400;2023-11-18T06:46:49;11.40;99.90
23579;DHT22;11967;50.852;4.400;2023-11-18T06:49:16;11.30;99.90
23579;DHT22;11967;50.852;4.400;2023-11-18T06:51:42;11.40;99.90
23579;DHT22;11967;50.852;4.400;2023-11-18T06:54:09;11.40;99.90
23579;DHT22;11967;50.852;4.400;2023-11-18T06:56:39;11.40;99.90
23579;DHT22;11967;50.852;4.400;2023-11-18T06:59:08;11.50;99.90
23579;DHT22;11967;50.852;4.400;2023-11-18T07:01:35;11.50;99.90
23579;DHT22;11967;50.852;4.400;2023-11-18T07:04:02;11.40;99.90
23579;DHT22;11967;50.852;4.400;2023-11-18T07:06:28;11.40;99.90
23579;DHT22;11967;50.852;4.400;2023-11-18T07:08:54;11.50;99.90
23579;DHT22;11967;50.852;4.400;2023-11-18T07:11:25;11.50;99.90
23579;DHT22;11967;50.852;4.400;2023-11-18T07:13:51;11.50;99.90
23579;DHT22;11967;50.852;4.400;2023-11-18T07:16:23;11.50;99.90
23579;DHT22;11967;50.852;4.400;2023-11-18T07:18:48;11.50;99.90
23579;DHT22;11967;50.852;4.400;2023-11-18T07:21:14;11.50;99.90
23579;DHT22;11967;50.852;4.400;2023-11-18T07:23:39;11.50;99.90
23579;DHT22;11967;50.852;4.400;2023-11-18T07:26:05;11.50;99.90
23579;DHT22;11967;50.852;4.400;2023-11-18T07:28:31;11.50;99.90
23579;DHT22;11967;50.852;4.400;2023-11-18T07:30:57;11.50;99.90
23579;DHT22;11967;50.852;4.400;2023-11-18T07:33:24;11.60;99.90
23579;DHT22;11967;50.852;4.400;2023-11-18T07:35:50;11.50;99.90
23579;DHT22;11967;50.852;4.400;2023-11-18T07:38:16;11.50;99.90
23579;DHT22;11967;50.852;4.400;2023-11-18T07:40:43;11.60;99.90
23579;DHT22;11967;50.852;4.400;2023-11-18T07:43:17;11.60;99.90
23579;DHT22;11967;50.852;4.400;2023-11-18T07:45:43;11.50;99.90
23579;DHT22;11967;50.852;4.400;2023-11-18T07:48:09;11.50;99.90
23579;DHT22;11967;50.852;4.400;2023-11-18T07:50:37;11.40;99.90
23579;DHT22;11967;50.852;4.400;2023-11-18T07:53:03;11.40;99.90
23579;DHT22;11967;50.852;4.400;2023-11-18T07:55:32;11.40;99.90
23579;DHT22;11967;50.852;4.400;2023-11-18T07:58:03;11.30;99.90
23579;DHT22;11967;50.852;4.400;2023-11-18T08:00:29;11.30;99.90
23579;DHT22;11967;50.852;4.400;2023-11-18T08:02:58;11.30;99.90
23579;DHT22;11967;50.852;4.400;2023-11-18T08:05:26;11.40;99.90
23579;DHT22;11967;50.852;4.400;2023-11-18T08:07:53;11.40;99.90
23579;DHT22;11967;50.852;4.400;2023-11-18T08:10:19;11.30;99.90
23579;DHT22;11967;50.852;4.400;2023-11-18T08:12:45;11.30;99.90
23579;DHT22;11967;50.852;4.400;2023-11-18T08:15:13;11.30;99.90
23579;DHT22;11967;50.852;4.400;2023-11-18T08:17:39;11.40;99.90
23579;DHT22;11967;50.852;4.400;2023-11-18T08:20:05;11.30;99.90
23579;DHT22;11967;50.852;4.400;2023-11-18T08:22:42;11.30;99.90
23579;DHT22;11967;50.852;4.400;2023-11-18T08:25:12;11.30;99.90
23579;DHT22;11967;50.852;4.400;2023-11-18T08:27:39;11.30;99.90
23579;DHT22;11967;50.852;4.400;2023-11-18T08:30:06;11.30;99.90
23579;DHT22;11967;50.852;4.400;2023-11-18T08:32:37;11.30;99.90
23579;DHT22;11967;50.852;4.400;2023-11-18T08:35:04;11.40;99.90
23579;DHT22;11967;50.852;4.400;2023-11-18T08:37:31;11.30;99.90
23579;DHT22;11967;50.852;4.400;2023-11-18T08:39:57;11.30;99.90
23579;DHT22;11967;50.852;4.400;2023-11-18T08:42:23;11.20;99.90
23579;DHT22;11967;50.852;4.400;2023-11-18T08:44:49;11.20;99.90
23579;DHT22;11967;50.852;4.400;2023-11-18T08:47:15;11.30;99.90
23579;DHT22;11967;50.852;4.400;2023-11-18T08:49:43;11.30;99.90
23579;DHT22;11967;50.852;4.400;2023-11-18T08:52:12;11.30;99.90
23579;DHT22;11967;50.852;4.400;2023-11-18T08:54:39;11.40;99.90
23579;DHT22;11967;50.852;4.400;2023-11-18T08:57:25;11.30;99.90
23579;DHT22;11967;50.852;4.400;2023-11-18T08:59:51;11.20;99.90
23579;DHT22;11967;50.852;4.400;2023-11-18T09:02:20;11.20;99.90
23579;DHT22;11967;50.852;4.400;2023-11-18T09:04:49;11.30;99.90
23579;DHT22;11967;50.852;4.400;2023-11-18T09:07:15;11.20;99.90
23579;DHT22;11967;50.852;4.400;2023-11-18T09:09:41;11.30;99.90
23579;DHT22;11967;50.852;4.400;2023-11-18T09:12:07;11.30;99.90
23579;DHT22;11967;50.852;4.400;2023-11-18T09:14:34;11.40;99.90
23579;DHT22;11967;50.852;4.400;2023-11-18T09:16:59;11.40;99.90
23579;DHT22;11967;50.852;4.400;2023-11-18T09:19:28;11.30;99.90
23579;DHT22;11967;50.852;4.400;2023-11-18T09:21:55;11.20;99.90
23579;DHT22;11967;50.852;4.400;2023-11-18T09:24:20;11.30;99.90
23579;DHT22;11967;50.852;4.400;2023-11-18T09:26:51;11.30;99.90
23579;DHT22;11967;50.852;4.400;2023-11-18T09:29:17;11.20;99.90
23579;DHT22;11967;50.852;4.400;2023-11-18T09:31:48;11.30;99.90
23579;DHT22;11967;50.852;4.400;2023-11-18T09:34:15;11.30;99.90
23579;DHT22;11967;50.852;4.400;2023-11-18T09:36:43;11.40;99.90
23579;DHT22;11967;50.852;4.400;2023-11-18T09:39:09;11.40;99.90
23579;DHT22;11967;50.852;4.400;2023-11-18T09:41:42;11.40;99.90
23579;DHT22;11967;50.852;4.400;2023-11-18T09:44:08;11.30;99.90
23579;DHT22;11967;50.852;4.400;2023-11-18T09:46:41;11.40;99.90
23579;DHT22;11967;50.852;4.400;2023-11-18T09:49:19;11.40;99.90
23579;DHT22;11967;50.852;4.400;2023-11-18T09:51:56;11.40;99.90
23579;DHT22;11967;50.852;4.400;2023-11-18T09:57:20;11.40;99.90
23579;DHT22;11967;50.852;4.400;2023-11-18T09:59:54;11.40;99.90
23579;DHT22;11967;50.852;4.400;2023-11-18T10:02:25;11.30;99.90
23579;DHT22;11967;50.852;4.400;2023-11-18T10:04:52;11.40;99.90
23579;DHT22;11967;50.852;4.400;2023-11-18T10:07:24;11.30;99.90
23579;DHT22;11967;50.852;4.400;2023-11-18T10:09:54;11.30;99.90
23579;DHT22;11967;50.852;4.400;2023-11-18T10:12:23;11.50;99.90
23579;DHT22;11967;50.852;4.400;2023-11-18T10:14:49;11.40;99.90
23579;DHT22;11967;50.852;4.400;2023-11-18T10:17:18;11.40;99.90
23579;DHT22;11967;50.852;4.400;2023-11-18T10:19:55;11.40;99.90
23579;DHT22;11967;50.852;4.400;2023-11-18T10:22:27;11.40;99.90
23579;DHT22;11967;50.852;4.400;2023-11-18T10:24:56;11.40;99.90
23579;DHT22;11967;50.852;4.400;2023-11-18T10:27:27;11.40;99.90
23579;DHT22;11967;50.852;4.400;2023-11-18T10:29:57;11.40;99.90
23579;DHT22;11967;50.852;4.400;2023-11-18T10:32:22;11.40;99.90
23579;DHT22;11967;50.852;4.400;2023-11-18T10:34:54;11.40;99.90
23579;DHT22;11967;50.852;4.400;2023-11-18T10:37:20;11.40;99.90
23579;DHT22;11967;50.852;4.400;2023-11-18T10:39:48;11.40;99.90
23579;DHT22;11967;50.852;4.400;2023-11-18T10:42:20;11.40;99.90
23579;DHT22;11967;50.852;4.400;2023-11-18T10:44:55;11.40;99.90
23579;DHT22;11967;50.852;4.400;2023-11-18T10:47:27;11.50;99.90
23579;DHT22;11967;50.852;4.400;2023-11-18T10:49:54;11.60;99.90
23579;DHT22;11967;50.852;4.400;2023-11-18T10:52:22;11.60;99.90
23579;DHT22;11967;50.852;4.400;2023-11-18T10:54:55;11.60;99.90
23579;DHT22;11967;50.852;4.400;2023-11-18T10:57:22;11.40;99.90
23579;DHT22;11967;50.852;4.400;2023-11-18T10:59:59;11.40;99.90
23579;DHT22;11967;50.852;4.400;2023-11-18T11:02:25;11.40;99.90
23579;DHT22;11967;50.852;4.400;2023-11-18T11:04:50;11.40;99.90
23579;DHT22;11967;50.852;4.400;2023-11-18T11:07:19;11.40;99.90
23579;DHT22;11967;50.852;4.400;2023-11-18T11:09:49;11.40;99.90
23579;DHT22;11967;50.852;4.400;2023-11-18T11:12:21;11.50;99.90
23579;DHT22;11967;50.852;4.400;2023-11-18T11:15:12;11.50;99.90
23579;DHT22;11967;50.852;4.400;2023-11-18T11:17:50;11.60;99.90
23579;DHT22;11967;50.852;4.400;2023-11-18T11:20:21;11.50;99.90
23579;DHT22;11967;50.852;4.400;2023-11-18T11:23:27;11.40;99.90
23579;DHT22;11967;50.852;4.400;2023-11-18T11:31:48;11.60;99.90
23579;DHT22;11967;50.852;4.400;2023-11-18T11:34:18;11.50;99.90
23579;DHT22;11967;50.852;4.400;2023-11-18T11:36:51;11.60;99.90
23579;DHT22;11967;50.852;4.400;2023-11-18T11:39:19;11.50;99.90
23579;DHT22;11967;50.852;4.400;2023-11-18T11:41:52;11.30;99.90
23579;DHT22;11967;50.852;4.400;2023-11-18T11:44:21;11.30;99.90
23579;DHT22;11967;50.852;4.400;2023-11-18T11:46:54;11.30;99.90
23579;DHT22;11967;50.852;4.400;2023-11-18T11:49:22;11.30;99.90
23579;DHT22;11967;50.852;4.400;2023-11-18T11:52:18;11.40;99.90
23579;DHT22;11967;50.852;4.400;2023-11-18T11:57:32;11.40;99.90
23579;DHT22;11967;50.852;4.400;2023-11-18T12:00:03;11.40;99.90
23579;DHT22;11967;50.852;4.400;2023-11-18T12:02:47;11.40;99.90
23579;DHT22;11967;50.852;4.400;2023-11-18T12:05:18;11.50;99.90
23579;DHT22;11967;50.852;4.400;2023-11-18T12:07:46;11.50;99.90
23579;DHT22;11967;50.852;4.400;2023-11-18T12:10:12;11.50;99.90
23579;DHT22;11967;50.852;4.400;2023-11-18T12:12:40;11.50;99.90
23579;DHT22;11967;50.852;4.400;2023-11-18T12:15:08;11.50;99.90
23579;DHT22;11967;50.852;4.400;2023-11-18T12:20:43;11.60;99.90
23579;DHT22;11967;50.852;4.400;2023-11-18T12:23:13;11.60;99.90
23579;DHT22;11967;50.852;4.400;2023-11-18T12:25:40;11.60;99.90
23579;DHT22;11967;50.852;4.400;2023-11-18T12:28:15;11.60;99.90
23579;DHT22;11967;50.852;4.400;2023-11-18T12:30:43;11.70;99.90
23579;DHT22;11967;50.852;4.400;2023-11-18T12:33:20;11.50;99.90
23579;DHT22;11967;50.852;4.400;2023-11-18T12:41:36;11.40;99.90
23579;DHT22;11967;50.852;4.400;2023-11-18T12:47:19;11.50;99.90
23579;DHT22;11967;50.852;4.400;2023-11-18T12:49:48;11.50;99.90
23579;DHT22;11967;50.852;4.400;2023-11-18T12:52:20;11.40;99.90
23579;DHT22;11967;50.852;4.400;2023-11-18T12:54:47;11.40;99.90
23579;DHT22;11967;50.852;4.400;2023-11-18T12:57:26;11.40;99.90
23579;DHT22;11967;50.852;4.400;2023-11-18T12:59:56;11.40;99.90
23579;DHT22;11967;50.852;4.400;2023-11-18T13:02:22;11.40;99.90
23579;DHT22;11967;50.852;4.400;2023-11-18T13:04:49;11.40;99.90
23579;DHT22;11967;50.852;4.400;2023-11-18T13:07:21;11.40;99.90
23579;DHT22;11967;50.852;4.400;2023-11-18T13:09:48;11.40;99.90
23579;DHT22;11967;50.852;4.400;2023-11-18T13:12:14;11.30;99.90
23579;DHT22;11967;50.852;4.400;2023-11-18T13:14:43;11.20;99.90
23579;DHT22;11967;50.852;4.400;2023-11-18T13:17:12;11.20;99.90
23579;DHT22;11967;50.852;4.400;2023-11-18T13:19:39;11.40;99.90
23579;DHT22;11967;50.852;4.400;2023-11-18T13:22:07;11.30;99.90
23579;DHT22;11967;50.852;4.400;2023-11-18T13:24:43;11.40;99.90
23579;DHT22;11967;50.852;4.400;2023-11-18T13:27:19;11.40;99.90
23579;DHT22;11967;50.852;4.400;2023-11-18T13:29:49;11.30;99.90
23579;DHT22;11967;50.852;4.400;2023-11-18T13:32:16;11.30;99.90
23579;DHT22;11967;50.852;4.400;2023-11-18T13:34:42;11.40;99.90
23579;DHT22;11967;50.852;4.400;2023-11-18T13:37:08;11.40;99.90
23579;DHT22;11967;50.852;4.400;2023-11-18T13:39:36;11.40;99.90
23579;DHT22;11967;50.852;4.400;2023-11-18T13:42:24;11.40;99.90
23579;DHT22;11967;50.852;4.400;2023-11-18T13:44:50;11.40;99.90
23579;DHT22;11967;50.852;4.400;2023-11-18T13:47:20;11.40;99.90
23579;DHT22;11967;50.852;4.400;2023-11-18T13:49:48;11.40;99.90
23579;DHT22;11967;50.852;4.400;2023-11-18T13:52:15;11.40;99.90
23579;DHT22;11967;50.852;4.400;2023-11-18T13:54:42;11.40;99.90
23579;DHT22;11967;50.852;4.400;2023-11-18T13:57:11;11.40;99.90
23579;DHT22;11967;50.852;4.400;2023-11-18T13:59:37;11.40;99.90
23579;DHT22;11967;50.852;4.400;2023-11-18T14:02:04;11.30;99.90
23579;DHT22;11967;50.852;4.400;2023-11-18T14:04:31;11.40;99.90
23579;DHT22;11967;50.852;4.400;2023-11-18T14:07:00;11.40;99.90
23579;DHT22;11967;50.852;4.400;2023-11-18T14:09:27;11.50;99.90
23579;DHT22;11967;50.852;4.400;2023-11-18T14:11:55;11.40;99.90
23579;DHT22;11967;50.852;4.400;2023-11-18T14:14:22;11.30;99.90
23579;DHT22;11967;50.852;4.400;2023-11-18T14:16:48;11.40;99.90
23579;DHT22;11967;50.852;4.400;2023-11-18T14:19:14;11.30;99.90
23579;DHT22;11967;50.852;4.400;2023-11-18T14:21:40;11.40;99.90
23579;DHT22;11967;50.852;4.400;2023-11-18T14:24:07;11.50;99.90
23579;DHT22;11967;50.852;4.400;2023-11-18T14:26:33;11.50;99.90
23579;DHT22;11967;50.852;4.400;2023-11-18T14:28:59;11.50;99.90
23579;DHT22;11967;50.852;4.400;2023-11-18T14:31:25;11.60;99.90
23579;DHT22;11967;50.852;4.400;2023-11-18T14:33:51;11.60;99.90
23579;DHT22;11967;50.852;4.400;2023-11-18T14:36:18;11.60;99.90
23579;DHT22;11967;50.852;4.400;2023-11-18T14:38:44;11.60;99.90
23579;DHT22;11967;50.852;4.400;2023-11-18T14:41:10;11.70;99.90
23579;DHT22;11967;50.852;4.400;2023-11-18T14:43:36;11.70;99.90
23579;DHT22;11967;50.852;4.400;2023-11-18T14:46:02;11.70;99.90
23579;DHT22;11967;50.852;4.400;2023-11-18T14:48:29;11.70;99.90
23579;DHT22;11967;50.852;4.400;2023-11-18T14:50:55;11.70;99.90
23579;DHT22;11967;50.852;4.400;2023-11-18T14:53:22;11.70;99.90
23579;DHT22;11967;50.852;4.400;2023-11-18T14:55:48;11.70;99.90
23579;DHT22;11967;50.852;4.400;2023-11-18T14:58:14;11.80;99.90
23579;DHT22;11967;50.852;4.400;2023-11-18T15:00:40;11.80;99.90
23579;DHT22;11967;50.852;4.400;2023-11-18T15:03:08;11.90;99.90
23579;DHT22;11967;50.852;4.400;2023-11-18T15:05:34;11.90;99.90
23579;DHT22;11967;50.852;4.400;2023-11-18T15:07:59;11.90;99.90
23579;DHT22;11967;50.852;4.400;2023-11-18T15:10:27;11.90;99.90
23579;DHT22;11967;50.852;4.400;2023-11-18T15:12:57;11.90;99.90
23579;DHT22;11967;50.852;4.400;2023-11-18T15:15:25;11.90;99.90
23579;DHT22;11967;50.852;4.400;2023-11-18T15:17:58;11.90;99.90
23579;DHT22;11967;50.852;4.400;2023-11-18T15:20:25;11.80;99.90
23579;DHT22;11967;50.852;4.400;2023-11-18T15:22:51;11.80;99.90
23579;DHT22;11967;50.852;4.400;2023-11-18T15:25:17;11.80;99.90
23579;DHT22;11967;50.852;4.400;2023-11-18T15:27:44;11.90;99.90
23579;DHT22;11967;50.852;4.400;2023-11-18T15:30:14;11.90;99.90
23579;DHT22;11967;50.852;4.400;2023-11-18T15:32:41;11.80;99.90
23579;DHT22;11967;50.852;4.400;2023-11-18T15:35:08;11.80;99.90
23579;DHT22;11967;50.852;4.400;2023-11-18T15:37:37;11.80;99.90
23579;DHT22;11967;50.852;4.400;2023-11-18T15:40:07;11.90;99.90
23579;DHT22;11967;50.852;4.400;2023-11-18T15:42:41;11.90;99.90
23579;DHT22;11967;50.852;4.400;2023-11-18T15:45:10;11.90;99.90
23579;DHT22;11967;50.852;4.400;2023-11-18T15:47:37;12.00;99.90
23579;DHT22;11967;50.852;4.400;2023-11-18T15:50:05;12.10;99.90
23579;DHT22;11967;50.852;4.400;2023-11-18T15:52:32;12.00;99.90
23579;DHT22;11967;50.852;4.400;2023-11-18T15:55:02;12.00;99.90
23579;DHT22;11967;50.852;4.400;2023-11-18T15:57:38;12.00;99.90
23579;DHT22;11967;50.852;4.400;2023-11-18T16:00:11;12.00;99.90